Terminal Aerodrome Forecast
Issued by NWS Louisville, KY

Home | Current Version | Previous Version | Text Only | Print | Product List | Glossary On
Versions: 1 2 3 4 5 6 7 8 9 10 11 12 13 14 15 16
000
FTUS43 KLMK 201700 RRA
TAFLEX
TAF
KLEX 201741Z 2018/2118 22010KT P6SM SCT035 BKN080
     FM202300 25005KT P6SM BKN035
     FM210900 30004KT 5SM BR BKN030
     FM211400 31009KT P6SM BKN035=

USA.gov is the U.S. government's official web portal to all federal, state and local government web resources and services.